Time;durP1;ratioP1;P1;durP2;ratioP2;P2;SDS_P1;SDS_P2;PMS_P1;PMS_P2;Temp;Humidity;BMP_temperature;BMP_pressure;BME280_temperature;BME280_humidity;BME280_pressure;Samples;Min_cycle;Max_cycle;Signal;HPM_P1;HPM_P2
2022/12/06 00:01:10;;;;;;;8.48;6.97;;;25.50;99.90;;;;;;5042269;28;20013;-70
2022/12/06 00:03:38;;;;;;;11.38;7.45;;;25.60;99.90;;;;;;5041531;28;20021;-70
2022/12/06 00:06:07;;;;;;;20.75;13.10;;;25.40;99.90;;;;;;5042158;28;20021;-69
2022/12/06 00:08:34;;;;;;;23.77;14.77;;;25.50;99.90;;;;;;5043433;28;20040;-70
2022/12/06 00:11:05;;;;;;;23.13;16.08;;;25.50;99.90;;;;;;5042045;28;20029;-68
2022/12/06 00:13:32;;;;;;;17.13;11.57;;;25.30;99.90;;;;;;5041004;28;20031;-68
2022/12/06 00:16:01;;;;;;;12.32;9.90;;;25.40;99.90;;;;;;5042999;28;20382;-68
2022/12/06 00:18:28;;;;;;;10.95;8.20;;;25.50;99.90;;;;;;5045972;28;20436;-70
2022/12/06 00:20:55;;;;;;;11.43;7.55;;;25.70;99.90;;;;;;5032895;28;20074;-70
2022/12/06 00:23:24;;;;;;;10.75;7.13;;;25.70;99.90;;;;;;5033079;28;20037;-69
2022/12/06 00:25:50;;;;;;;15.02;11.35;;;25.70;99.90;;;;;;5034747;28;20040;-69
2022/12/06 00:28:17;;;;;;;16.65;13.20;;;25.80;99.90;;;;;;5041224;28;20024;-69
2022/12/06 00:30:44;;;;;;;17.42;9.52;;;25.90;99.90;;;;;;5041176;28;20406;-67
2022/12/06 00:33:11;;;;;;;11.60;8.77;;;25.80;99.90;;;;;;5041988;28;20080;-68
2022/12/06 00:35:37;;;;;;;11.45;9.13;;;25.70;99.90;;;;;;5042802;28;20017;-69
2022/12/06 00:38:04;;;;;;;10.20;8.30;;;25.80;99.90;;;;;;5041218;28;20021;-69
2022/12/06 00:40:30;;;;;;;18.17;12.93;;;25.70;99.90;;;;;;5041985;28;20021;-69
2022/12/06 00:42:57;;;;;;;122.60;86.45;;;25.90;99.90;;;;;;5043049;28;20380;-71
2022/12/06 00:45:23;;;;;;;34.85;31.13;;;26.00;99.90;;;;;;5041487;28;20014;-70
2022/12/06 00:47:50;;;;;;;24.50;18.80;;;25.90;99.90;;;;;;5042035;28;20021;-70
2022/12/06 00:50:16;;;;;;;15.75;11.25;;;25.90;99.90;;;;;;5042522;28;20037;-69
2022/12/06 00:52:43;;;;;;;9.30;8.15;;;26.10;99.90;;;;;;5040814;28;20104;-70
2022/12/06 00:55:09;;;;;;;15.52;11.75;;;26.20;99.90;;;;;;5042051;28;20016;-69
2022/12/06 00:57:36;;;;;;;12.98;8.70;;;26.20;99.90;;;;;;5042371;28;20045;-69
2022/12/06 01:00:03;;;;;;;12.90;9.10;;;26.10;99.90;;;;;;5043220;28;20480;-68
2022/12/06 01:02:29;;;;;;;12.35;8.15;;;26.20;99.90;;;;;;5045822;28;20017;-69
2022/12/06 01:04:56;;;;;;;13.68;8.60;;;26.30;99.90;;;;;;5046072;28;20021;-68
2022/12/06 01:07:22;;;;;;;18.17;7.80;;;26.20;99.90;;;;;;5044470;28;20063;-69
2022/12/06 01:09:49;;;;;;;69.18;46.42;;;26.30;99.90;;;;;;5045618;28;20029;-72
2022/12/06 01:12:15;;;;;;;152.27;114.28;;;26.20;99.90;;;;;;5045902;28;20087;-70
2022/12/06 01:14:42;;;;;;;31.52;24.33;;;26.40;99.90;;;;;;5043772;28;20021;-71
2022/12/06 01:17:11;;;;;;;36.10;26.48;;;26.50;99.90;;;;;;5043205;28;20030;-71
2022/12/06 01:19:37;;;;;;;25.73;13.15;;;26.60;99.90;;;;;;5036127;28;20026;-71
2022/12/06 01:22:04;;;;;;;22.33;16.05;;;26.40;99.90;;;;;;5037576;28;20021;-72
2022/12/06 01:24:30;;;;;;;12.00;8.95;;;26.60;99.90;;;;;;5054073;28;20028;-71
2022/12/06 01:26:57;;;;;;;13.25;9.52;;;26.60;99.90;;;;;;5050453;28;20497;-69
2022/12/06 01:29:23;;;;;;;16.48;10.07;;;26.60;99.90;;;;;;5036028;28;20029;-69
2022/12/06 01:31:50;;;;;;;11.63;9.15;;;26.50;99.90;;;;;;5035762;28;20048;-70
2022/12/06 01:34:17;;;;;;;10.30;9.02;;;26.70;99.90;;;;;;5038115;28;20029;-69
2022/12/06 01:36:43;;;;;;;21.20;11.02;;;26.60;99.90;;;;;;5035471;28;20076;-69
2022/12/06 01:39:11;;;;;;;13.52;10.27;;;26.60;99.90;;;;;;5044761;28;20017;-69
2022/12/06 01:41:38;;;;;;;20.25;11.57;;;26.70;99.90;;;;;;5038634;28;20020;-70
2022/12/06 01:44:06;;;;;;;19.52;12.88;;;26.70;99.90;;;;;;5035532;28;20080;-69
2022/12/06 01:46:36;;;;;;;20.90;10.70;;;26.60;99.90;;;;;;5035646;28;20028;-70
2022/12/06 01:49:05;;;;;;;16.08;10.20;;;26.60;99.90;;;;;;5035556;28;20030;-71
2022/12/06 01:51:32;;;;;;;14.35;10.27;;;26.70;99.90;;;;;;5035451;28;20486;-70
2022/12/06 01:54:01;;;;;;;13.02;9.45;;;26.80;99.90;;;;;;5035430;28;20025;-70
2022/12/06 01:56:27;;;;;;;13.60;9.18;;;26.70;99.90;;;;;;5044014;28;20029;-69
2022/12/06 01:58:56;;;;;;;17.23;9.50;;;26.90;99.90;;;;;;5055266;28;20063;-67
2022/12/06 02:01:26;;;;;;;9.23;8.18;;;26.80;99.90;;;;;;5056151;28;20473;-69
2022/12/06 02:03:55;;;;;;;9.93;7.93;;;26.80;99.90;;;;;;5055951;28;20025;-68
2022/12/06 02:06:22;;;;;;;10.25;8.48;;;26.70;99.90;;;;;;5055442;28;20031;-67
2022/12/06 02:08:51;;;;;;;11.65;8.52;;;26.80;99.90;;;;;;5055044;28;20103;-67
2022/12/06 02:11:17;;;;;;;13.05;9.30;;;26.80;99.90;;;;;;5054726;28;20025;-70
2022/12/06 02:13:44;;;;;;;26.23;17.67;;;26.90;99.90;;;;;;5055106;28;20024;-69
2022/12/06 02:16:17;;;;;;;22.08;13.32;;;26.90;99.90;;;;;;5054879;28;20025;-68
2022/12/06 02:18:50;;;;;;;24.75;13.63;;;27.00;99.90;;;;;;5054706;28;20111;-66
2022/12/06 02:21:20;;;;;;;27.10;13.40;;;27.00;99.90;;;;;;5054794;28;20021;-68
2022/12/06 02:23:58;;;;;;;22.38;12.25;;;27.10;99.90;;;;;;5055040;28;20025;-68
2022/12/06 02:26:28;;;;;;;22.83;13.15;;;27.40;99.90;;;;;;5054646;28;20021;-66
2022/12/06 02:29:04;;;;;;;21.55;11.95;;;27.30;99.90;;;;;;5054936;28;20025;-68
2022/12/06 02:31:35;;;;;;;16.80;10.48;;;27.50;99.90;;;;;;5054196;28;20441;-69
2022/12/06 02:34:12;;;;;;;11.23;9.57;;;27.30;99.90;;;;;;5054444;28;20025;-70
2022/12/06 02:36:58;;;;;;;13.13;10.32;;;27.40;99.90;;;;;;5054252;28;20017;-69
2022/12/06 02:39:34;;;;;;;18.83;11.15;;;27.40;99.90;;;;;;5053509;28;20033;-69
2022/12/06 02:42:07;;;;;;;17.73;11.23;;;27.60;99.90;;;;;;5054032;28;20028;-69
2022/12/06 02:44:42;;;;;;;18.40;11.48;;;27.40;99.90;;;;;;5054298;28;20029;-68
2022/12/06 02:47:11;;;;;;;14.52;11.00;;;27.50;99.90;;;;;;5043206;28;20031;-68
2022/12/06 02:49:45;;;;;;;14.27;11.75;;;27.50;99.90;;;;;;5054242;28;20033;-68
2022/12/06 02:52:13;;;;;;;16.38;11.88;;;27.50;99.90;;;;;;5054282;28;20033;-69
2022/12/06 02:54:43;;;;;;;19.42;15.07;;;27.80;99.90;;;;;;5053862;28;20032;-67
2022/12/06 02:57:09;;;;;;;19.13;14.82;;;27.70;99.90;;;;;;5054068;28;20122;-68
2022/12/06 02:59:36;;;;;;;25.75;18.45;;;28.00;99.90;;;;;;5054154;28;20470;-69
2022/12/06 03:02:05;;;;;;;28.45;18.75;;;27.90;99.90;;;;;;5053860;28;20032;-68
2022/12/06 03:04:46;;;;;;;21.88;16.65;;;28.10;99.90;;;;;;5053931;28;20091;-68
2022/12/06 03:07:17;;;;;;;26.77;17.33;;;28.10;99.90;;;;;;5053635;28;20104;-68
2022/12/06 03:09:49;;;;;;;31.13;20.42;;;28.20;99.90;;;;;;5054060;28;20079;-68
2022/12/06 03:14:46;;;;;;;30.35;19.55;;;28.30;99.90;;;;;;5053907;28;20029;-66
2022/12/06 03:17:21;;;;;;;31.70;20.45;;;28.50;99.90;;;;;;5053677;28;20028;-67
2022/12/06 03:19:55;;;;;;;32.88;22.60;;;28.60;99.90;;;;;;5053592;28;20470;-66
2022/12/06 03:22:30;;;;;;;37.30;24.08;;;28.60;99.90;;;;;;5053278;28;20031;-67
2022/12/06 03:27:27;;;;;;;81.68;40.90;;;28.60;99.90;;;;;;5053609;28;20029;-67
2022/12/06 03:29:58;;;;;;;54.95;41.55;;;28.70;99.90;;;;;;5053655;28;20025;-67
2022/12/06 03:32:28;;;;;;;47.78;38.50;;;28.70;99.90;;;;;;5053288;28;20405;-67
2022/12/06 03:34:58;;;;;;;59.95;42.22;;;28.70;99.90;;;;;;5053370;28;20030;-67
2022/12/06 03:37:29;;;;;;;62.65;40.05;;;28.80;99.90;;;;;;5053320;28;20025;-67
2022/12/06 03:39:59;;;;;;;55.75;40.17;;;28.70;99.90;;;;;;5053222;28;20021;-65
2022/12/06 03:42:26;;;;;;;68.07;49.60;;;28.70;99.90;;;;;;5052568;28;20025;-66
2022/12/06 03:44:53;;;;;;;62.13;42.90;;;28.70;99.90;;;;;;5033138;28;20423;-69
2022/12/06 03:47:28;;;;;;;66.75;48.45;;;28.70;99.90;;;;;;5032159;28;20022;-68
2022/12/06 03:50:01;;;;;;;65.80;48.70;;;28.70;99.90;;;;;;5033047;28;20032;-68
2022/12/06 03:52:29;;;;;;;82.20;55.20;;;28.80;99.90;;;;;;5040999;28;20385;-68
2022/12/06 03:54:56;;;;;;;95.20;63.50;;;28.70;99.90;;;;;;5053250;28;20063;-68
2022/12/06 03:57:22;;;;;;;101.55;70.15;;;28.80;99.90;;;;;;5052921;28;20477;-68
2022/12/06 03:59:49;;;;;;;106.40;68.80;;;28.90;99.90;;;;;;5052949;28;20114;-68
2022/12/06 04:02:15;;;;;;;93.47;65.07;;;28.90;99.90;;;;;;5053062;28;20017;-68
2022/12/06 04:04:42;;;;;;;91.88;62.38;;;29.00;99.90;;;;;;5053095;28;20017;-68
2022/12/06 04:07:10;;;;;;;94.75;64.72;;;29.10;99.90;;;;;;5049404;28;20029;-68
2022/12/06 04:12:59;;;;;;;197.80;139.45;;;29.10;99.90;;;;;;5052996;28;20513;-68
2022/12/06 04:14:52;;;;;;;150.32;93.93;;;29.10;99.90;;;;;;5052717;28;20025;-68
2022/12/06 04:19:48;;;;;;;158.90;99.90;;;29.00;99.90;;;;;;5052713;28;20367;-68
2022/12/06 04:24:43;;;;;;;234.30;155.15;;;29.00;99.90;;;;;;5053065;28;20120;-68
2022/12/06 04:39:36;;;;;;;142.32;86.47;;;29.00;99.90;;;;;;5056835;28;20381;-68
2022/12/06 04:44:33;;;;;;;136.23;86.43;;;29.10;99.90;;;;;;5056306;28;20100;-68
2022/12/06 04:47:00;;;;;;;123.47;79.07;;;29.10;99.90;;;;;;5055661;28;20032;-67
2022/12/06 04:51:56;;;;;;;89.43;62.90;;;29.20;99.90;;;;;;5041594;28;20445;-66
2022/12/06 04:54:23;;;;;;;88.78;65.55;;;29.10;99.90;;;;;;5039832;28;20112;-64
2022/12/06 04:56:50;;;;;;;90.00;65.97;;;29.10;99.90;;;;;;5040745;28;20029;-65
2022/12/06 05:04:15;;;;;;;80.57;58.88;;;29.10;99.90;;;;;;5036640;28;20025;-64
2022/12/06 05:06:41;;;;;;;80.03;57.95;;;29.10;99.90;;;;;;5036552;28;20470;-64
2022/12/06 05:09:08;;;;;;;80.72;55.95;;;29.20;99.90;;;;;;5036361;28;20206;-64
2022/12/06 05:11:34;;;;;;;74.10;50.90;;;29.20;99.90;;;;;;5036538;28;20045;-65
2022/12/06 05:14:01;;;;;;;55.70;45.42;;;29.30;99.90;;;;;;5036612;28;20394;-65
2022/12/06 05:16:27;;;;;;;49.10;40.03;;;29.40;99.90;;;;;;5036538;28;20029;-65
2022/12/06 05:18:54;;;;;;;47.83;38.25;;;29.50;99.90;;;;;;5036248;28;20025;-64
2022/12/06 05:21:23;;;;;;;47.90;38.58;;;29.50;99.90;;;;;;5036402;28;20108;-64
2022/12/06 05:23:53;;;;;;;54.85;42.55;;;29.40;99.90;;;;;;5036463;28;20466;-63
2022/12/06 05:26:22;;;;;;;65.57;48.75;;;29.50;99.90;;;;;;5036235;28;20040;-64
2022/12/06 05:28:49;;;;;;;45.78;33.50;;;29.50;99.90;;;;;;5036227;28;20143;-65
2022/12/06 05:31:17;;;;;;;41.92;31.55;;;29.60;99.90;;;;;;5035838;28;20049;-65
2022/12/06 05:33:44;;;;;;;33.40;29.00;;;29.70;99.90;;;;;;5036205;28;20041;-64
2022/12/06 05:36:17;;;;;;;43.97;32.70;;;29.70;99.90;;;;;;5035985;28;20417;-64
2022/12/06 05:38:47;;;;;;;42.85;33.15;;;29.70;99.90;;;;;;5035793;28;20053;-64
2022/12/06 05:41:14;;;;;;;44.20;32.17;;;29.80;99.90;;;;;;5036340;28;20370;-64
2022/12/06 05:43:40;;;;;;;41.55;29.73;;;29.80;99.90;;;;;;5035936;28;20022;-65
2022/12/06 05:48:36;;;;;;;40.28;32.20;;;29.70;99.90;;;;;;5035821;28;20021;-65
2022/12/06 05:51:03;;;;;;;43.83;32.03;;;29.70;99.90;;;;;;5035963;28;20025;-64
2022/12/06 05:53:30;;;;;;;40.72;33.33;;;29.60;99.90;;;;;;5035688;28;20087;-65
2022/12/06 05:56:02;;;;;;;48.63;27.63;;;29.60;99.90;;;;;;5035769;28;20030;-64
2022/12/06 05:58:29;;;;;;;35.28;27.67;;;29.70;99.90;;;;;;5043372;28;20043;-65
2022/12/06 06:00:55;;;;;;;32.00;26.38;;;29.80;99.90;;;;;;5041405;28;20052;-65
2022/12/06 06:03:23;;;;;;;28.90;22.85;;;29.90;99.90;;;;;;5035656;28;20170;-64
2022/12/06 06:05:54;;;;;;;28.45;22.20;;;30.00;99.90;;;;;;5036049;28;20030;-62
2022/12/06 06:08:21;;;;;;;28.83;20.40;;;30.10;99.90;;;;;;5035917;28;20033;-64
2022/12/06 06:10:47;;;;;;;25.10;20.90;;;30.10;99.90;;;;;;5035821;28;20742;-64
2022/12/06 06:13:14;;;;;;;24.38;19.42;;;30.20;99.90;;;;;;5035362;28;20025;-63
2022/12/06 06:15:40;;;;;;;22.45;17.95;;;30.30;99.90;;;;;;5035105;28;20017;-63
2022/12/06 06:18:10;;;;;;;21.65;17.13;;;30.30;99.90;;;;;;5035188;28;20060;-64
2022/12/06 06:20:36;;;;;;;23.98;17.08;;;30.30;99.90;;;;;;5035372;28;20494;-64
2022/12/06 06:23:03;;;;;;;20.35;16.45;;;30.40;99.90;;;;;;5036302;28;20121;-64
2022/12/06 06:25:29;;;;;;;25.42;21.08;;;30.50;99.90;;;;;;5045415;28;20491;-62
2022/12/06 06:27:56;;;;;;;29.38;21.60;;;30.50;99.90;;;;;;5043070;28;20029;-61
2022/12/06 06:30:23;;;;;;;25.55;18.90;;;30.60;99.90;;;;;;5043545;28;20025;-64
2022/12/06 06:32:49;;;;;;;23.02;18.00;;;30.60;99.90;;;;;;5050429;28;20079;-64
2022/12/06 06:37:46;;;;;;;52.17;38.95;;;30.70;99.90;;;;;;5053738;28;20020;-65
2022/12/06 06:40:13;;;;;;;17.52;14.65;;;30.80;99.90;;;;;;5055049;28;20108;-65
2022/12/06 06:42:40;;;;;;;24.13;17.20;;;30.80;99.90;;;;;;5054775;28;20025;-64
2022/12/06 06:45:07;;;;;;;19.70;15.15;;;30.90;99.90;;;;;;5054632;28;20027;-66
2022/12/06 06:47:34;;;;;;;24.65;19.67;;;30.90;99.90;;;;;;5051081;28;20044;-64
2022/12/06 06:50:00;;;;;;;19.13;12.88;;;31.00;99.90;;;;;;5044336;28;20034;-68
2022/12/06 06:52:29;;;;;;;56.30;42.33;;;31.00;99.90;;;;;;5047263;28;20086;-64
2022/12/06 06:54:56;;;;;;;21.35;18.83;;;31.00;99.90;;;;;;5044582;28;20032;-64
2022/12/06 06:59:51;;;;;;;20.92;15.15;;;31.20;99.90;;;;;;5042715;28;20481;-68
2022/12/06 07:02:18;;;;;;;25.55;16.77;;;31.20;99.90;;;;;;5045362;28;20117;-66
2022/12/06 07:04:45;;;;;;;27.33;16.13;;;31.10;99.90;;;;;;5044209;28;20021;-66
2022/12/06 07:07:11;;;;;;;22.25;16.15;;;31.00;99.90;;;;;;5044947;28;20183;-65
2022/12/06 07:09:38;;;;;;;17.17;13.27;;;31.00;99.90;;;;;;5043552;28;20370;-65
2022/12/06 07:12:05;;;;;;;14.93;12.52;;;31.10;99.90;;;;;;5044392;28;20029;-64
2022/12/06 07:14:31;;;;;;;17.58;12.15;;;31.20;99.90;;;;;;5042279;28;20531;-63
2022/12/06 07:16:58;;;;;;;15.20;11.73;;;31.20;99.90;;;;;;5043376;28;20503;-63
2022/12/06 07:19:24;;;;;;;17.77;12.27;;;31.20;99.90;;;;;;5043258;28;20492;-68
2022/12/06 07:21:51;;;;;;;15.38;11.48;;;31.30;99.90;;;;;;5042585;28;20074;-64
2022/12/06 07:24:17;;;;;;;16.10;12.52;;;31.40;99.90;;;;;;5041389;28;20036;-65
2022/12/06 07:26:44;;;;;;;15.43;13.05;;;31.50;99.90;;;;;;5041337;28;20025;-64
2022/12/06 07:29:10;;;;;;;72.40;54.97;;;31.50;99.90;;;;;;5042012;28;20017;-65
2022/12/06 07:31:39;;;;;;;63.60;45.42;;;31.50;99.90;;;;;;5043034;28;20394;-64
2022/12/06 07:34:05;;;;;;;30.15;23.13;;;31.50;99.90;;;;;;5042846;28;20028;-65
2022/12/06 07:36:32;;;;;;;16.77;13.82;;;31.60;99.90;;;;;;5046243;28;20022;-65
2022/12/06 07:38:59;;;;;;;19.88;13.23;;;31.60;99.90;;;;;;5042599;28;20031;-65
2022/12/06 07:46:28;;;;;;;12.07;9.88;;;31.90;99.90;;;;;;5042817;28;20044;-70
2022/12/06 07:48:54;;;;;;;15.32;12.35;;;32.00;99.90;;;;;;5046734;28;20016;-70
2022/12/06 07:51:21;;;;;;;18.70;13.77;;;31.90;99.90;;;;;;5043350;28;20040;-70
2022/12/06 07:53:47;;;;;;;23.40;12.93;;;31.90;99.90;;;;;;5043556;28;20383;-70
2022/12/06 07:56:14;;;;;;;17.67;13.10;;;31.90;99.90;;;;;;5043531;28;20032;-70
2022/12/06 08:01:09;;;;;;;18.23;13.18;;;31.90;99.90;;;;;;5041505;28;20018;-70
2022/12/06 08:03:37;;;;;;;15.10;12.02;;;32.00;99.90;;;;;;5047533;28;20075;-72
2022/12/06 08:06:04;;;;;;;13.93;11.80;;;32.00;99.90;;;;;;5041488;28;20021;-72
2022/12/06 08:08:31;;;;;;;18.55;12.95;;;31.90;99.90;;;;;;5040484;28;20067;-71
2022/12/06 08:11:03;;;;;;;16.25;13.40;;;31.90;99.90;;;;;;5042489;28;20035;-71
2022/12/06 08:13:29;;;;;;;17.33;13.10;;;31.80;99.90;;;;;;5042378;28;20026;-69
2022/12/06 08:15:56;;;;;;;16.50;11.77;;;31.70;99.90;;;;;;5040431;28;20112;-73
2022/12/06 08:18:24;;;;;;;13.55;11.35;;;31.70;99.90;;;;;;5041602;28;20013;-67
2022/12/06 08:20:52;;;;;;;15.80;12.30;;;31.70;99.90;;;;;;5042975;28;20030;-68
2022/12/06 08:23:19;;;;;;;13.73;12.32;;;31.70;99.90;;;;;;5041714;28;20052;-67
2022/12/06 08:25:45;;;;;;;16.83;13.32;;;31.70;99.90;;;;;;5042214;28;20022;-69
2022/12/06 08:28:12;;;;;;;18.00;13.75;;;31.80;99.90;;;;;;5040927;28;20505;-69
2022/12/06 08:30:40;;;;;;;14.00;12.23;;;31.90;99.90;;;;;;5043368;28;20129;-69
2022/12/06 08:33:07;;;;;;;17.45;12.48;;;31.90;99.90;;;;;;5043334;28;20040;-69
2022/12/06 08:35:36;;;;;;;17.20;12.52;;;31.90;99.90;;;;;;5046507;28;20040;-68
2022/12/06 08:38:02;;;;;;;13.20;11.13;;;31.90;99.90;;;;;;5049550;28;20032;-70
2022/12/06 08:42:58;;;;;;;18.42;14.23;;;32.00;99.90;;;;;;5042742;28;20025;-70
2022/12/06 08:45:24;;;;;;;15.32;12.95;;;32.00;99.90;;;;;;5043262;28;20119;-70
2022/12/06 08:47:51;;;;;;;15.52;12.27;;;31.90;99.90;;;;;;5042842;28;20021;-70
2022/12/06 08:50:18;;;;;;;15.15;12.63;;;32.00;99.90;;;;;;5042645;28;20067;-69
2022/12/06 08:52:44;;;;;;;15.23;12.60;;;31.90;99.90;;;;;;5047368;28;20104;-69
2022/12/06 08:55:11;;;;;;;16.33;13.80;;;31.90;99.90;;;;;;5052913;28;20025;-69
2022/12/06 08:57:37;;;;;;;14.15;12.65;;;31.90;99.90;;;;;;5052783;28;20017;-70
2022/12/06 09:00:08;;;;;;;16.55;12.10;;;31.90;99.90;;;;;;5052343;28;20048;-70
2022/12/06 09:02:34;;;;;;;18.17;12.55;;;31.90;99.90;;;;;;5043914;28;20026;-69
2022/12/06 09:05:01;;;;;;;19.38;13.68;;;31.80;99.90;;;;;;5033832;28;20471;-70
2022/12/06 09:07:27;;;;;;;16.67;13.68;;;31.80;99.90;;;;;;5041531;28;20021;-69
2022/12/06 09:09:54;;;;;;;22.45;13.25;;;31.80;99.90;;;;;;5044893;28;20377;-70
2022/12/06 09:12:21;;;;;;;16.95;13.93;;;31.80;99.90;;;;;;5033766;28;20426;-69
2022/12/06 09:14:48;;;;;;;27.00;20.05;;;31.80;99.90;;;;;;5032875;28;20110;-68
2022/12/06 09:17:15;;;;;;;52.78;32.17;;;31.70;99.90;;;;;;5032744;28;20381;-68
2022/12/06 09:19:41;;;;;;;29.67;19.70;;;31.70;99.90;;;;;;5033386;28;20030;-69
2022/12/06 09:22:07;;;;;;;30.75;20.40;;;31.70;99.90;;;;;;5036349;28;20017;-68
2022/12/06 09:24:34;;;;;;;43.08;23.73;;;31.60;99.90;;;;;;5036299;28;20018;-68
2022/12/06 09:27:00;;;;;;;28.85;17.60;;;31.50;99.90;;;;;;5036106;28;20025;-69
2022/12/06 09:29:27;;;;;;;28.35;17.65;;;31.40;99.90;;;;;;5045589;28;20033;-69
2022/12/06 09:31:54;;;;;;;30.73;19.45;;;31.30;99.90;;;;;;5050867;28;20136;-69
2022/12/06 09:34:20;;;;;;;30.83;21.55;;;31.20;99.90;;;;;;5036495;28;20025;-68
2022/12/06 09:36:51;;;;;;;25.50;18.48;;;31.20;99.90;;;;;;5043665;28;20421;-69
2022/12/06 09:39:20;;;;;;;25.40;18.98;;;31.20;99.90;;;;;;5038941;28;20018;-69
2022/12/06 09:41:51;;;;;;;47.22;31.08;;;31.20;99.90;;;;;;5045587;28;20073;-69
2022/12/06 09:44:21;;;;;;;53.38;35.80;;;31.20;99.90;;;;;;5046369;28;20078;-69
2022/12/06 09:46:59;;;;;;;33.97;23.88;;;31.20;99.90;;;;;;5047464;28;20038;-70
2022/12/06 09:49:29;;;;;;;30.48;22.35;;;31.20;99.90;;;;;;5044360;28;20032;-69
2022/12/06 09:51:59;;;;;;;36.10;25.02;;;31.20;99.90;;;;;;5048426;28;20367;-67
2022/12/06 09:54:27;;;;;;;27.42;19.70;;;31.20;99.90;;;;;;5047404;28;20422;-68
2022/12/06 09:57:00;;;;;;;31.73;21.63;;;31.00;99.90;;;;;;5049266;28;20033;-69
2022/12/06 09:59:33;;;;;;;27.17;18.55;;;30.80;99.90;;;;;;5043947;28;20098;-68
2022/12/06 10:02:05;;;;;;;29.48;20.73;;;30.90;99.90;;;;;;5047710;28;20047;-69
2022/12/06 10:04:38;;;;;;;30.42;20.40;;;30.90;99.90;;;;;;5042658;28;20052;-68
2022/12/06 10:07:07;;;;;;;30.60;22.00;;;30.90;99.90;;;;;;5047426;28;20040;-68
2022/12/06 10:09:38;;;;;;;199.48;155.80;;;30.90;99.90;;;;;;5045881;28;20026;-70
2022/12/06 10:12:10;;;;;;;49.10;35.33;;;30.90;99.90;;;;;;5046156;28;20020;-67
2022/12/06 10:14:37;;;;;;;33.17;25.60;;;30.80;99.90;;;;;;5047185;28;20433;-68
2022/12/06 10:17:08;;;;;;;34.03;24.98;;;30.70;99.90;;;;;;5047408;28;20025;-68
2022/12/06 10:19:37;;;;;;;26.25;20.95;;;30.70;99.90;;;;;;5046287;28;20025;-66
2022/12/06 10:22:05;;;;;;;28.08;20.52;;;30.60;99.90;;;;;;5042839;28;20368;-69
2022/12/06 10:27:31;;;;;;;43.03;26.73;;;30.50;99.90;;;;;;5044733;28;20021;-69
2022/12/06 10:30:09;;;;;;;39.40;27.10;;;30.40;99.90;;;;;;5046471;28;20029;-69
2022/12/06 10:32:39;;;;;;;38.10;26.60;;;30.40;99.90;;;;;;5045207;28;20044;-69
2022/12/06 10:35:17;;;;;;;35.88;23.95;;;30.50;99.90;;;;;;5044321;28;20360;-69
2022/12/06 10:37:49;;;;;;;30.75;21.95;;;30.50;99.90;;;;;;5043722;28;20026;-69
2022/12/06 10:40:22;;;;;;;40.22;23.40;;;30.50;99.90;;;;;;5037950;28;20028;-69
2022/12/06 10:42:56;;;;;;;31.00;21.33;;;30.50;99.90;;;;;;5034225;28;20026;-70
2022/12/06 10:48:18;;;;;;;70.88;48.13;;;30.50;99.90;;;;;;5034482;28;20033;-69
2022/12/06 10:50:50;;;;;;;37.20;24.48;;;30.50;99.90;;;;;;5042774;28;20466;-70
2022/12/06 10:53:19;;;;;;;26.55;18.80;;;30.50;99.90;;;;;;5034846;28;20040;-70
2022/12/06 10:55:49;;;;;;;27.40;19.60;;;30.50;99.90;;;;;;5034064;28;20025;-68
2022/12/06 10:58:21;;;;;;;62.05;43.33;;;30.50;99.90;;;;;;5034303;28;20577;-71
2022/12/06 11:00:50;;;;;;;205.48;137.57;;;30.40;99.90;;;;;;5035224;28;20393;-69
2022/12/06 11:03:23;;;;;;;194.10;133.25;;;30.30;99.90;;;;;;5034536;28;20485;-69
2022/12/06 11:05:56;;;;;;;148.43;81.38;;;30.30;99.90;;;;;;5051588;28;20025;-70
2022/12/06 11:08:26;;;;;;;87.90;47.88;;;30.30;99.90;;;;;;5054552;28;20116;-69
2022/12/06 11:10:55;;;;;;;53.78;36.97;;;30.20;99.90;;;;;;5054116;28;20392;-69
2022/12/06 11:13:30;;;;;;;57.83;35.00;;;30.20;99.90;;;;;;5053919;28;20029;-69
2022/12/06 11:16:03;;;;;;;36.88;25.20;;;30.20;99.90;;;;;;5053846;28;20457;-69
2022/12/06 11:18:31;;;;;;;39.08;23.90;;;30.10;99.90;;;;;;5054734;28;20075;-69
2022/12/06 11:21:05;;;;;;;34.95;23.65;;;30.10;99.90;;;;;;5054190;28;20318;-69
2022/12/06 11:23:44;;;;;;;36.60;25.70;;;30.10;99.90;;;;;;5054149;28;20033;-69
2022/12/06 11:26:19;;;;;;;41.42;26.27;;;30.10;99.90;;;;;;5053782;28;20035;-69
2022/12/06 11:29:04;;;;;;;48.83;30.42;;;30.10;99.90;;;;;;5053763;28;20488;-69
2022/12/06 11:31:33;;;;;;;57.67;32.67;;;30.00;99.90;;;;;;5053570;28;20381;-68
2022/12/06 11:34:02;;;;;;;50.67;31.27;;;30.00;99.90;;;;;;5053713;28;20032;-69
2022/12/06 11:36:30;;;;;;;52.17;31.70;;;30.00;99.90;;;;;;5053535;28;20358;-69
2022/12/06 11:38:57;;;;;;;46.53;32.15;;;30.00;99.90;;;;;;5053556;28;20023;-69
2022/12/06 11:41:29;;;;;;;53.22;34.13;;;30.00;99.90;;;;;;5053622;28;20027;-66
2022/12/06 11:43:56;;;;;;;53.30;31.85;;;30.00;99.90;;;;;;5052684;28;20024;-66
2022/12/06 11:46:24;;;;;;;54.70;33.63;;;30.00;99.90;;;;;;5050379;28;20039;-66
2022/12/06 11:48:51;;;;;;;43.10;29.65;;;30.00;99.90;;;;;;5051765;28;20021;-67
2022/12/06 11:51:20;;;;;;;59.40;35.53;;;30.00;99.90;;;;;;5048049;28;20064;-68
2022/12/06 11:53:54;;;;;;;57.63;35.28;;;30.00;99.90;;;;;;5043657;28;20425;-65
2022/12/06 11:56:23;;;;;;;55.65;37.92;;;30.00;99.90;;;;;;5043296;28;20104;-65
2022/12/06 11:58:51;;;;;;;56.97;37.35;;;29.90;99.90;;;;;;5041607;28;20116;-66
2022/12/06 12:01:20;;;;;;;57.63;36.70;;;29.90;99.90;;;;;;5045235;28;20505;-67
2022/12/06 12:03:47;;;;;;;58.97;37.33;;;29.90;99.90;;;;;;5041065;28;20036;-66
2022/12/06 12:06:17;;;;;;;69.82;43.35;;;29.80;99.90;;;;;;5036376;28;20075;-67
2022/12/06 12:08:49;;;;;;;71.70;45.15;;;29.90;99.90;;;;;;5036184;28;20052;-67
2022/12/06 12:11:21;;;;;;;63.35;41.30;;;29.90;99.90;;;;;;5053122;28;20362;-67
2022/12/06 12:13:54;;;;;;;;;;;29.90;99.90;;;;;;5044693;28;20025;-66
2022/12/06 12:16:28;;;;;;;73.30;44.03;;;29.90;99.90;;;;;;5053405;28;19909;-64
2022/12/06 12:19:21;;;;;;;71.90;46.58;;;29.90;99.90;;;;;;5052660;28;20025;-64
2022/12/06 12:21:48;;;;;;;82.45;48.60;;;29.90;99.90;;;;;;5053056;28;20021;-65
2022/12/06 12:24:19;;;;;;;91.75;51.47;;;29.80;99.90;;;;;;5052349;28;20469;-66
2022/12/06 12:26:46;;;;;;;82.05;49.47;;;29.70;99.90;;;;;;5045953;28;20037;-67
2022/12/06 12:29:18;;;;;;;73.72;45.45;;;29.70;99.90;;;;;;5034460;28;20165;-66
2022/12/06 12:31:46;;;;;;;;;;;29.70;99.90;;;;;;5043688;28;20050;-66
2022/12/06 12:34:17;;;;;;;66.60;43.10;;;29.60;99.90;;;;;;5050946;28;20349;-65
2022/12/06 12:36:50;;;;;;;68.30;44.15;;;29.60;99.90;;;;;;5052782;28;20039;-66
2022/12/06 12:39:23;;;;;;;70.75;47.85;;;29.60;99.90;;;;;;5052605;28;20108;-66
2022/12/06 12:41:49;;;;;;;83.13;51.92;;;29.60;99.90;;;;;;5051053;28;20021;-64
2022/12/06 12:44:25;;;;;;;79.97;52.63;;;29.60;99.90;;;;;;5037066;28;20041;-65
2022/12/06 12:46:57;;;;;;;75.05;49.70;;;29.70;99.90;;;;;;5052803;28;20068;-65
2022/12/06 12:49:30;;;;;;;81.77;51.13;;;29.70;99.90;;;;;;5053048;28;20025;-66
2022/12/06 12:51:57;;;;;;;72.53;46.08;;;29.60;99.90;;;;;;5052832;28;20048;-66
2022/12/06 12:54:28;;;;;;;75.13;49.35;;;29.60;99.90;;;;;;5044218;28;20025;-65
2022/12/06 12:56:56;;;;;;;83.95;52.95;;;29.50;99.90;;;;;;5056323;28;20041;-64
2022/12/06 12:59:25;;;;;;;88.90;54.05;;;29.40;99.90;;;;;;5056413;28;20025;-67
2022/12/06 13:01:57;;;;;;;87.03;52.72;;;29.50;99.90;;;;;;5055856;28;20036;-66
2022/12/06 13:04:24;;;;;;;;;;;29.50;99.90;;;;;;5056691;28;20021;-66
2022/12/06 13:07:00;;;;;;;81.03;51.90;;;29.50;99.90;;;;;;5056279;28;19991;-62
2022/12/06 13:09:31;;;;;;;84.63;54.25;;;29.60;99.90;;;;;;5056360;28;20108;-66
2022/12/06 13:12:14;;;;;;;93.05;61.90;;;29.60;99.90;;;;;;5056422;28;20477;-66
2022/12/06 13:14:50;;;;;;;104.10;65.10;;;29.50;99.90;;;;;;5056300;28;20393;-66
2022/12/06 13:17:19;;;;;;;120.68;65.78;;;29.50;99.90;;;;;;5055564;28;20037;-68
2022/12/06 13:19:47;;;;;;;122.95;64.03;;;29.40;99.90;;;;;;5047776;28;20428;-68
2022/12/06 13:22:19;;;;;;;151.43;80.22;;;29.40;99.90;;;;;;5037030;28;20029;-67
2022/12/06 13:24:54;;;;;;;106.68;64.20;;;29.30;99.90;;;;;;5036353;28;20092;-67
2022/12/06 13:27:22;;;;;;;110.45;63.78;;;29.40;99.90;;;;;;5038421;28;20025;-68
2022/12/06 13:29:57;;;;;;;93.43;55.35;;;29.40;99.90;;;;;;5036533;28;20398;-68
2022/12/06 13:32:35;;;;;;;84.68;54.55;;;29.50;99.90;;;;;;5036500;28;20064;-68
2022/12/06 13:35:15;;;;;;;73.78;48.00;;;29.50;99.90;;;;;;5036651;28;20025;-67